Time;durP1;ratioP1;P1;durP2;ratioP2;P2;SDS_P1;SDS_P2;PMS_P1;PMS_P2;Temp;Humidity;BMP_temperature;BMP_pressure;BME280_temperature;BME280_humidity;BME280_pressure;Samples;Min_cycle;Max_cycle;Signal;HPM_P1;HPM_P2
2024/02/25 21:01:19;;;;;;;11.50;5.30;;;;;;;6.02;50.22;100892.89;103873;1288;604980;-77
2024/02/25 21:03:46;;;;;;;10.00;4.50;;;;;;;6.11;49.83;100890.01;104806;1267;369443;-78
2024/02/25 21:06:17;;;;;;;8.20;4.30;;;;;;;6.00;49.69;100890.77;105197;1271;59221;-79
2024/02/25 21:08:46;;;;;;;7.90;4.00;;;;;;;5.90;50.00;100886.16;105170;1266;65461;-75
2024/02/25 21:11:16;;;;;;;8.70;4.00;;;;;;;5.81;50.10;100885.07;105116;1264;59687;-81
2024/02/25 21:13:46;;;;;;;9.80;4.70;;;;;;;5.75;50.28;100879.75;105280;1265;68136;-80
2024/02/25 21:16:15;;;;;;;12.40;5.80;;;;;;;5.70;50.28;100878.09;105735;1265;59890;-79
2024/02/25 21:18:44;;;;;;;14.30;7.40;;;;;;;5.64;50.38;100871.95;105223;1262;59376;-80
2024/02/25 21:21:12;;;;;;;13.20;6.60;;;;;;;5.60;50.51;100869.04;105487;1263;64083;-80
2024/02/25 21:23:40;;;;;;;14.70;8.00;;;;;;;5.57;50.63;100867.09;105492;1263;60997;-81
2024/02/25 21:26:08;;;;;;;16.50;9.70;;;;;;;5.53;50.78;100866.75;105781;1260;65140;-81
2024/02/25 21:28:38;;;;;;;18.90;9.00;;;;;;;5.50;50.87;100874.23;106004;1257;59557;-78
2024/02/25 21:31:06;;;;;;;14.70;7.60;;;;;;;5.47;51.02;100865.83;105347;1257;59603;-80
2024/02/25 21:33:34;;;;;;;18.00;7.10;;;;;;;5.45;51.05;100862.95;105530;1257;64136;-77
2024/02/25 21:36:02;;;;;;;17.40;7.10;;;;;;;5.44;51.17;100860.59;105653;1259;65611;-79
2024/02/25 21:38:30;;;;;;;19.10;6.20;;;;;;;5.43;51.24;100864.46;105566;1263;62849;-78
2024/02/25 21:40:57;;;;;;;18.50;6.90;;;;;;;5.41;51.34;100863.36;105582;1259;61792;-80
2024/02/25 21:43:25;;;;;;;21.00;7.10;;;;;;;5.38;51.31;100865.21;105624;1259;59608;-81
2024/02/25 21:45:53;;;;;;;14.70;6.70;;;;;;;5.35;51.48;100866.63;105365;1259;64504;-78
2024/02/25 21:48:23;;;;;;;20.50;6.60;;;;;;;5.31;51.53;100869.46;105646;1262;59651;-80
2024/02/25 21:50:52;;;;;;;22.10;6.80;;;;;;;5.26;51.70;100865.34;105435;1259;62444;-80
2024/02/25 21:53:24;;;;;;;24.60;8.40;;;;;;;5.21;51.89;100866.62;106030;1262;59662;-81
2024/02/25 21:56:06;;;;;;;27.20;9.80;;;;;;;5.17;52.07;100863.48;106480;1259;59663;-82
2024/02/25 21:58:36;;;;;;;25.30;8.50;;;;;;;5.15;52.19;100862.19;105815;1260;66735;-80
2024/02/25 22:01:04;;;;;;;24.90;8.30;;;;;;;5.12;52.30;100853.08;105520;1259;60446;-80
2024/02/25 22:03:35;;;;;;;28.30;9.00;;;;;;;5.10;52.39;100853.73;105736;1260;64171;-78
2024/02/25 22:06:03;;;;;;;27.00;9.30;;;;;;;5.05;52.34;100857.64;108952;1257;57449;-80
2024/02/25 22:08:34;;;;;;;26.90;8.30;;;;;;;5.00;52.42;100859.10;108943;1257;57211;-80
2024/02/25 22:11:02;;;;;;;23.00;7.40;;;;;;;4.97;52.54;100862.05;108957;1259;64365;-84
2024/02/25 22:13:31;;;;;;;24.80;8.00;;;;;;;4.93;52.64;100859.79;108877;1257;59555;-79
2024/02/25 22:15:59;;;;;;;26.00;8.30;;;;;;;4.89;52.65;100858.21;108942;1257;62493;-82
2024/02/25 22:18:27;;;;;;;22.30;8.50;;;;;;;4.87;52.71;100855.85;109311;1253;57723;-80
2024/02/25 22:20:55;;;;;;;22.20;7.40;;;;;;;4.87;52.79;100850.97;109289;1253;57288;-83
2024/02/25 22:23:26;;;;;;;15.10;6.30;;;;;;;4.87;52.72;100849.60;109290;1253;63496;-82
2024/02/25 22:25:54;;;;;;;13.40;5.80;;;;;;;4.85;52.67;100852.31;109339;1253;59886;-84
2024/02/25 22:28:22;;;;;;;11.10;5.00;;;;;;;4.82;52.54;100845.80;109305;1253;71794;-82
2024/02/25 22:30:50;;;;;;;8.50;4.30;;;;;;;4.80;52.55;100843.84;109337;1253;57653;-83
2024/02/25 22:33:17;;;;;;;8.70;4.00;;;;;;;4.80;52.58;100843.66;109231;1253;57629;-78
2024/02/25 22:35:45;;;;;;;8.20;3.30;;;;;;;4.80;52.44;100841.91;109148;1253;62822;-79
2024/02/25 22:38:13;;;;;;;4.10;2.60;;;;;;;4.79;52.45;100840.77;109290;1253;59274;-82
2024/02/25 22:40:41;;;;;;;5.60;3.20;;;;;;;4.76;52.44;100837.76;109235;1253;63697;-78
2024/02/25 22:43:09;;;;;;;5.90;3.40;;;;;;;4.73;52.53;100839.11;109350;1253;57623;-85
2024/02/25 22:45:36;;;;;;;5.10;3.00;;;;;;;4.72;52.69;100838.99;109256;1253;57557;-77
2024/02/25 22:48:04;;;;;;;7.00;3.30;;;;;;;4.72;52.81;100846.67;109189;1253;64099;-78
2024/02/25 22:50:34;;;;;;;7.30;3.40;;;;;;;4.71;52.96;100843.93;109376;1254;58394;-78
2024/02/25 22:53:03;;;;;;;7.80;3.70;;;;;;;4.70;53.12;100847.63;109135;1254;64357;-78
2024/02/25 22:55:30;;;;;;;5.70;3.70;;;;;;;4.69;53.21;100853.27;109234;1256;57428;-79
2024/02/25 22:57:58;;;;;;;9.20;4.00;;;;;;;4.68;53.39;100867.09;109248;1253;57299;-80
2024/02/25 23:00:26;;;;;;;8.40;4.50;;;;;;;4.66;53.52;100870.15;109172;1255;64242;-80
2024/02/25 23:02:54;;;;;;;8.60;5.40;;;;;;;4.64;53.56;100860.48;109308;1254;57722;-79
2024/02/25 23:05:22;;;;;;;11.90;6.00;;;;;;;4.62;53.71;100852.70;109116;1255;63732;-83
2024/02/25 23:07:50;;;;;;;12.80;6.10;;;;;;;4.59;53.74;100843.23;109131;1256;57327;-83
2024/02/25 23:10:18;;;;;;;11.80;6.10;;;;;;;4.57;53.79;100839.33;109239;1254;57259;-83
2024/02/25 23:12:46;;;;;;;12.00;6.00;;;;;;;4.55;53.84;100838.57;109259;1255;64106;-80
2024/02/25 23:15:14;;;;;;;13.10;6.10;;;;;;;4.54;53.87;100839.13;109280;1255;58134;-82
2024/02/25 23:17:42;;;;;;;14.20;6.60;;;;;;;4.53;53.87;100835.16;109203;1255;62675;-78
2024/02/25 23:20:10;;;;;;;10.70;6.00;;;;;;;4.50;53.90;100836.86;109224;1255;57632;-80
2024/02/25 23:22:38;;;;;;;12.80;5.70;;;;;;;4.47;53.87;100830.42;109266;1254;57373;-81
2024/02/25 23:25:07;;;;;;;11.50;5.00;;;;;;;4.41;53.84;100837.66;109256;1256;62816;-83
2024/02/25 23:27:35;;;;;;;10.90;5.10;;;;;;;4.36;53.91;100836.67;109273;1254;57386;-81
2024/02/25 23:30:04;;;;;;;9.70;5.10;;;;;;;4.34;53.91;100839.05;109240;1254;62661;-84
2024/02/25 23:32:32;;;;;;;8.20;5.00;;;;;;;4.29;53.94;100833.16;109150;1254;57407;-79
2024/02/25 23:35:02;;;;;;;9.40;5.20;;;;;;;4.25;54.04;100834.03;109425;1256;57353;-79
2024/02/25 23:37:31;;;;;;;10.00;5.20;;;;;;;4.22;53.97;100840.26;109236;1257;65282;-80
2024/02/25 23:39:58;;;;;;;12.20;5.20;;;;;;;4.18;53.98;100842.92;109158;1256;57428;-82
2024/02/25 23:42:26;;;;;;;9.50;5.30;;;;;;;4.14;54.06;100843.10;109150;1254;63803;-80
2024/02/25 23:44:54;;;;;;;12.60;5.70;;;;;;;4.09;54.10;100835.64;109295;1256;57353;-80
2024/02/25 23:47:21;;;;;;;11.90;6.20;;;;;;;4.05;54.12;100826.77;109362;1254;57330;-82
2024/02/25 23:49:49;;;;;;;12.90;6.50;;;;;;;4.02;54.18;100828.82;109240;1256;64174;-80
2024/02/25 23:52:17;;;;;;;10.40;5.70;;;;;;;4.00;54.17;100822.45;109122;1254;57375;-81
2024/02/25 23:54:45;;;;;;;12.90;7.00;;;;;;;3.98;54.15;100827.41;109202;1256;63757;-79
2024/02/25 23:57:13;;;;;;;10.40;6.60;;;;;;;3.96;54.12;100836.05;109044;1256;57421;-83
2024/02/25 23:59:41;;;;;;;10.00;6.00;;;;;;;3.93;54.13;100837.93;109199;1254;57330;-83
